sensor_id;sensor_type;location;lat;lon;timestamp;temperature;humidity
26063;DHT22;13837;48.562;12.108;2022-12-11T00:00:09;-0.30;99.90
26063;DHT22;13837;48.562;12.108;2022-12-11T00:02:36;-0.30;99.90
26063;DHT22;13837;48.562;12.108;2022-12-11T00:05:02;-0.30;99.90
26063;DHT22;13837;48.562;12.108;2022-12-11T00:07:27;-0.40;99.90
26063;DHT22;13837;48.562;12.108;2022-12-11T00:09:53;-0.40;99.90
26063;DHT22;13837;48.562;12.108;2022-12-11T00:12:19;-0.40;99.90
26063;DHT22;13837;48.562;12.108;2022-12-11T00:14:44;-0.40;99.90
26063;DHT22;13837;48.562;12.108;2022-12-11T00:17:10;-0.40;99.90
26063;DHT22;13837;48.562;12.108;2022-12-11T00:19:36;-0.30;99.90
26063;DHT22;13837;48.562;12.108;2022-12-11T00:22:01;-0.30;99.90
26063;DHT22;13837;48.562;12.108;2022-12-11T00:24:27;-0.30;99.90
26063;DHT22;13837;48.562;12.108;2022-12-11T00:26:53;-0.30;99.90
26063;DHT22;13837;48.562;12.108;2022-12-11T00:29:19;-0.30;99.90
26063;DHT22;13837;48.562;12.108;2022-12-11T00:31:44;-0.40;99.90
26063;DHT22;13837;48.562;12.108;2022-12-11T00:34:10;-0.30;99.90
26063;DHT22;13837;48.562;12.108;2022-12-11T00:36:36;-0.30;99.90
26063;DHT22;13837;48.562;12.108;2022-12-11T00:39:02;-0.30;99.90
26063;DHT22;13837;48.562;12.108;2022-12-11T00:41:28;-0.40;99.90
26063;DHT22;13837;48.562;12.108;2022-12-11T00:43:54;-0.50;99.90
26063;DHT22;13837;48.562;12.108;2022-12-11T00:46:20;-0.40;99.90
26063;DHT22;13837;48.562;12.108;2022-12-11T00:48:49;-0.30;99.90
26063;DHT22;13837;48.562;12.108;2022-12-11T00:51:15;-0.40;99.90
26063;DHT22;13837;48.562;12.108;2022-12-11T00:53:41;-0.50;99.90
26063;DHT22;13837;48.562;12.108;2022-12-11T00:56:13;-0.50;99.90
26063;DHT22;13837;48.562;12.108;2022-12-11T00:58:39;-0.50;99.90
26063;DHT22;13837;48.562;12.108;2022-12-11T01:01:06;-0.60;99.90
26063;DHT22;13837;48.562;12.108;2022-12-11T01:03:32;-0.50;99.90
26063;DHT22;13837;48.562;12.108;2022-12-11T01:05:58;-0.50;99.90
26063;DHT22;13837;48.562;12.108;2022-12-11T01:08:24;-0.60;99.90
26063;DHT22;13837;48.562;12.108;2022-12-11T01:10:49;-0.50;99.90
26063;DHT22;13837;48.562;12.108;2022-12-11T01:13:15;-0.60;99.90
26063;DHT22;13837;48.562;12.108;2022-12-11T01:15:43;-0.60;99.90
26063;DHT22;13837;48.562;12.108;2022-12-11T01:18:13;-0.60;99.90
26063;DHT22;13837;48.562;12.108;2022-12-11T01:20:41;-0.60;99.90
26063;DHT22;13837;48.562;12.108;2022-12-11T01:23:10;-0.60;99.90
26063;DHT22;13837;48.562;12.108;2022-12-11T01:25:37;-0.60;99.90
26063;DHT22;13837;48.562;12.108;2022-12-11T01:28:04;-0.60;99.90
26063;DHT22;13837;48.562;12.108;2022-12-11T01:30:30;-0.60;99.90
26063;DHT22;13837;48.562;12.108;2022-12-11T01:32:55;-0.70;99.90
26063;DHT22;13837;48.562;12.108;2022-12-11T01:35:21;-0.70;99.90
26063;DHT22;13837;48.562;12.108;2022-12-11T01:37:47;-0.70;99.90
26063;DHT22;13837;48.562;12.108;2022-12-11T01:40:16;-0.70;99.90
26063;DHT22;13837;48.562;12.108;2022-12-11T01:42:42;-0.70;99.90
26063;DHT22;13837;48.562;12.108;2022-12-11T01:48:08;-0.70;99.90
26063;DHT22;13837;48.562;12.108;2022-12-11T01:50:48;-0.70;99.90
26063;DHT22;13837;48.562;12.108;2022-12-11T01:53:21;-0.70;99.90
26063;DHT22;13837;48.562;12.108;2022-12-11T01:55:50;-0.70;99.90
26063;DHT22;13837;48.562;12.108;2022-12-11T01:58:19;-0.70;99.90
26063;DHT22;13837;48.562;12.108;2022-12-11T02:00:45;-0.60;99.90
26063;DHT22;13837;48.562;12.108;2022-12-11T02:03:11;-0.70;99.90
26063;DHT22;13837;48.562;12.108;2022-12-11T02:05:37;-0.70;99.90
26063;DHT22;13837;48.562;12.108;2022-12-11T02:08:03;-0.80;99.90
26063;DHT22;13837;48.562;12.108;2022-12-11T02:13:17;-0.80;99.90
26063;DHT22;13837;48.562;12.108;2022-12-11T02:15:50;-0.70;99.90
26063;DHT22;13837;48.562;12.108;2022-12-11T02:18:35;-0.70;99.90
26063;DHT22;13837;48.562;12.108;2022-12-11T02:21:19;-0.60;99.90
26063;DHT22;13837;48.562;12.108;2022-12-11T02:32:39;-0.60;99.90
26063;DHT22;13837;48.562;12.108;2022-12-11T02:37:38;-0.70;99.90
26063;DHT22;13837;48.562;12.108;2022-12-11T02:40:08;-0.70;99.90
26063;DHT22;13837;48.562;12.108;2022-12-11T02:42:38;-0.70;99.90
26063;DHT22;13837;48.562;12.108;2022-12-11T02:45:07;-0.80;99.90
26063;DHT22;13837;48.562;12.108;2022-12-11T02:47:34;-0.80;99.90
26063;DHT22;13837;48.562;12.108;2022-12-11T02:50:03;-0.80;99.90
26063;DHT22;13837;48.562;12.108;2022-12-11T02:52:32;-0.80;99.90
26063;DHT22;13837;48.562;12.108;2022-12-11T02:55:00;-0.70;99.90
26063;DHT22;13837;48.562;12.108;2022-12-11T02:57:32;-0.60;99.90
26063;DHT22;13837;48.562;12.108;2022-12-11T03:00:00;-0.60;99.90
26063;DHT22;13837;48.562;12.108;2022-12-11T03:02:26;-0.60;99.90
26063;DHT22;13837;48.562;12.108;2022-12-11T03:04:52;-0.70;99.90
26063;DHT22;13837;48.562;12.108;2022-12-11T03:07:22;-0.80;99.90
26063;DHT22;13837;48.562;12.108;2022-12-11T03:09:49;-0.70;99.90
26063;DHT22;13837;48.562;12.108;2022-12-11T03:12:22;-0.70;99.90
26063;DHT22;13837;48.562;12.108;2022-12-11T03:14:49;-0.70;99.90
26063;DHT22;13837;48.562;12.108;2022-12-11T03:17:18;-0.60;99.90
26063;DHT22;13837;48.562;12.108;2022-12-11T03:25:21;-0.70;99.90
26063;DHT22;13837;48.562;12.108;2022-12-11T03:27:59;-0.70;99.90
26063;DHT22;13837;48.562;12.108;2022-12-11T03:30:28;-0.80;99.90
26063;DHT22;13837;48.562;12.108;2022-12-11T03:32:59;-0.70;99.90
26063;DHT22;13837;48.562;12.108;2022-12-11T03:35:32;-0.70;99.90
26063;DHT22;13837;48.562;12.108;2022-12-11T03:38:03;-0.70;99.90
26063;DHT22;13837;48.562;12.108;2022-12-11T03:40:31;-0.70;99.90
26063;DHT22;13837;48.562;12.108;2022-12-11T03:42:59;-0.70;99.90
26063;DHT22;13837;48.562;12.108;2022-12-11T03:45:27;-0.70;99.90
26063;DHT22;13837;48.562;12.108;2022-12-11T03:47:55;-0.80;99.90
26063;DHT22;13837;48.562;12.108;2022-12-11T03:50:25;-0.80;99.90
26063;DHT22;13837;48.562;12.108;2022-12-11T03:52:53;-0.80;99.90
26063;DHT22;13837;48.562;12.108;2022-12-11T03:55:20;-0.80;99.90
26063;DHT22;13837;48.562;12.108;2022-12-11T03:57:47;-0.70;99.90
26063;DHT22;13837;48.562;12.108;2022-12-11T04:00:16;-0.90;99.90
26063;DHT22;13837;48.562;12.108;2022-12-11T04:02:43;-0.90;99.90
26063;DHT22;13837;48.562;12.108;2022-12-11T04:05:10;-1.00;99.90
26063;DHT22;13837;48.562;12.108;2022-12-11T04:07:36;-1.00;99.90
26063;DHT22;13837;48.562;12.108;2022-12-11T04:10:03;-1.10;99.90
26063;DHT22;13837;48.562;12.108;2022-12-11T04:12:29;-1.10;99.90
26063;DHT22;13837;48.562;12.108;2022-12-11T04:14:54;-1.20;99.90
26063;DHT22;13837;48.562;12.108;2022-12-11T04:17:30;-1.20;99.90
26063;DHT22;13837;48.562;12.108;2022-12-11T04:20:16;-1.20;99.90
26063;DHT22;13837;48.562;12.108;2022-12-11T04:23:04;-1.30;99.90
26063;DHT22;13837;48.562;12.108;2022-12-11T04:25:48;-1.30;99.90
26063;DHT22;13837;48.562;12.108;2022-12-11T04:28:14;-1.30;99.90
26063;DHT22;13837;48.562;12.108;2022-12-11T04:30:40;-1.40;99.90
26063;DHT22;13837;48.562;12.108;2022-12-11T04:33:05;-1.40;99.90
26063;DHT22;13837;48.562;12.108;2022-12-11T04:35:31;-1.40;99.90
26063;DHT22;13837;48.562;12.108;2022-12-11T04:37:57;-1.40;99.90
26063;DHT22;13837;48.562;12.108;2022-12-11T04:40:23;-1.40;99.90
26063;DHT22;13837;48.562;12.108;2022-12-11T04:42:49;-1.50;99.90
26063;DHT22;13837;48.562;12.108;2022-12-11T04:45:15;-1.50;99.90
26063;DHT22;13837;48.562;12.108;2022-12-11T04:47:41;-1.40;99.90
26063;DHT22;13837;48.562;12.108;2022-12-11T04:50:11;-1.40;99.90
26063;DHT22;13837;48.562;12.108;2022-12-11T04:52:37;-1.50;99.90
26063;DHT22;13837;48.562;12.108;2022-12-11T04:55:04;-1.50;99.90
26063;DHT22;13837;48.562;12.108;2022-12-11T04:57:30;-1.40;99.90
26063;DHT22;13837;48.562;12.108;2022-12-11T04:59:56;-1.40;99.90
26063;DHT22;13837;48.562;12.108;2022-12-11T05:02:21;-1.40;99.90
26063;DHT22;13837;48.562;12.108;2022-12-11T05:04:47;-1.50;99.90
26063;DHT22;13837;48.562;12.108;2022-12-11T05:07:13;-1.40;99.90
26063;DHT22;13837;48.562;12.108;2022-12-11T05:09:38;-1.40;99.90
26063;DHT22;13837;48.562;12.108;2022-12-11T05:12:04;-1.40;99.90
26063;DHT22;13837;48.562;12.108;2022-12-11T05:14:30;-1.50;99.90
26063;DHT22;13837;48.562;12.108;2022-12-11T05:16:59;-1.40;99.90
26063;DHT22;13837;48.562;12.108;2022-12-11T05:19:25;-1.50;99.90
26063;DHT22;13837;48.562;12.108;2022-12-11T05:21:51;-1.50;99.90
26063;DHT22;13837;48.562;12.108;2022-12-11T05:24:17;-1.50;99.90
26063;DHT22;13837;48.562;12.108;2022-12-11T05:26:43;-1.60;99.90
26063;DHT22;13837;48.562;12.108;2022-12-11T05:29:09;-1.60;99.90
26063;DHT22;13837;48.562;12.108;2022-12-11T05:31:34;-1.60;99.90
26063;DHT22;13837;48.562;12.108;2022-12-11T05:34:00;-1.70;99.90
26063;DHT22;13837;48.562;12.108;2022-12-11T05:36:31;-1.70;99.90
26063;DHT22;13837;48.562;12.108;2022-12-11T05:38:58;-1.70;99.90
26063;DHT22;13837;48.562;12.108;2022-12-11T05:41:26;-1.70;99.90
26063;DHT22;13837;48.562;12.108;2022-12-11T05:43:52;-1.70;99.90
26063;DHT22;13837;48.562;12.108;2022-12-11T05:46:21;-1.80;99.90
26063;DHT22;13837;48.562;12.108;2022-12-11T05:48:48;-1.80;99.90
26063;DHT22;13837;48.562;12.108;2022-12-11T05:51:15;-1.80;99.90
26063;DHT22;13837;48.562;12.108;2022-12-11T05:53:42;-1.90;99.90
26063;DHT22;13837;48.562;12.108;2022-12-11T05:56:20;-2.00;99.90
26063;DHT22;13837;48.562;12.108;2022-12-11T05:58:46;-2.00;99.90
26063;DHT22;13837;48.562;12.108;2022-12-11T06:01:16;-2.00;99.90
26063;DHT22;13837;48.562;12.108;2022-12-11T06:03:42;-2.00;99.90
26063;DHT22;13837;48.562;12.108;2022-12-11T06:06:07;-2.00;99.90
26063;DHT22;13837;48.562;12.108;2022-12-11T06:08:33;-2.00;99.90
26063;DHT22;13837;48.562;12.108;2022-12-11T06:10:59;-2.10;99.90
26063;DHT22;13837;48.562;12.108;2022-12-11T06:13:26;-2.10;99.90
26063;DHT22;13837;48.562;12.108;2022-12-11T06:15:52;-2.10;99.90
26063;DHT22;13837;48.562;12.108;2022-12-11T06:18:18;-2.20;99.90
26063;DHT22;13837;48.562;12.108;2022-12-11T06:20:43;-2.20;99.90
26063;DHT22;13837;48.562;12.108;2022-12-11T06:23:09;-2.20;99.90
26063;DHT22;13837;48.562;12.108;2022-12-11T06:25:38;-2.10;99.90
26063;DHT22;13837;48.562;12.108;2022-12-11T06:28:04;-2.10;99.90
26063;DHT22;13837;48.562;12.108;2022-12-11T06:30:29;-2.10;99.90
26063;DHT22;13837;48.562;12.108;2022-12-11T06:32:57;-2.20;99.90
26063;DHT22;13837;48.562;12.108;2022-12-11T06:35:23;-2.20;99.90
26063;DHT22;13837;48.562;12.108;2022-12-11T06:37:49;-2.20;99.90
26063;DHT22;13837;48.562;12.108;2022-12-11T06:40:15;-2.30;99.90
26063;DHT22;13837;48.562;12.108;2022-12-11T06:42:41;-2.20;99.90
26063;DHT22;13837;48.562;12.108;2022-12-11T06:45:07;-2.20;99.90
26063;DHT22;13837;48.562;12.108;2022-12-11T06:47:33;-2.20;99.90
26063;DHT22;13837;48.562;12.108;2022-12-11T06:49:58;-2.10;99.90
26063;DHT22;13837;48.562;12.108;2022-12-11T06:52:25;-2.20;99.90
26063;DHT22;13837;48.562;12.108;2022-12-11T06:54:54;-2.10;99.90
26063;DHT22;13837;48.562;12.108;2022-12-11T06:57:20;-2.10;99.90
26063;DHT22;13837;48.562;12.108;2022-12-11T06:59:46;-1.90;99.90
26063;DHT22;13837;48.562;12.108;2022-12-11T07:02:13;-2.00;99.90
26063;DHT22;13837;48.562;12.108;2022-12-11T07:04:39;-1.90;99.90
26063;DHT22;13837;48.562;12.108;2022-12-11T07:07:05;-2.00;99.90
26063;DHT22;13837;48.562;12.108;2022-12-11T07:09:31;-2.10;99.90
26063;DHT22;13837;48.562;12.108;2022-12-11T07:11:57;-2.00;99.90
26063;DHT22;13837;48.562;12.108;2022-12-11T07:14:23;-2.00;99.90
26063;DHT22;13837;48.562;12.108;2022-12-11T07:16:48;-1.90;99.90
26063;DHT22;13837;48.562;12.108;2022-12-11T07:19:14;-1.90;99.90
26063;DHT22;13837;48.562;12.108;2022-12-11T07:21:40;-1.80;99.90
26063;DHT22;13837;48.562;12.108;2022-12-11T07:24:06;-1.80;99.90
26063;DHT22;13837;48.562;12.108;2022-12-11T07:26:32;-1.90;99.90
26063;DHT22;13837;48.562;12.108;2022-12-11T07:28:58;-1.80;99.90
26063;DHT22;13837;48.562;12.108;2022-12-11T07:31:28;-1.80;99.90
26063;DHT22;13837;48.562;12.108;2022-12-11T07:34:02;-1.80;99.90
26063;DHT22;13837;48.562;12.108;2022-12-11T07:36:29;-1.80;99.90
26063;DHT22;13837;48.562;12.108;2022-12-11T07:38:55;-1.80;99.90
26063;DHT22;13837;48.562;12.108;2022-12-11T07:41:21;-1.80;99.90
26063;DHT22;13837;48.562;12.108;2022-12-11T07:43:52;-1.80;99.90
26063;DHT22;13837;48.562;12.108;2022-12-11T07:46:24;-1.70;99.90
26063;DHT22;13837;48.562;12.108;2022-12-11T07:48:50;-1.70;99.90
26063;DHT22;13837;48.562;12.108;2022-12-11T07:51:21;-1.70;99.90
26063;DHT22;13837;48.562;12.108;2022-12-11T07:53:49;-1.70;99.90
26063;DHT22;13837;48.562;12.108;2022-12-11T07:56:17;-1.70;99.90
26063;DHT22;13837;48.562;12.108;2022-12-11T07:58:43;-1.80;99.90
26063;DHT22;13837;48.562;12.108;2022-12-11T08:01:36;-1.80;99.90
26063;DHT22;13837;48.562;12.108;2022-12-11T08:04:06;-1.80;99.90
26063;DHT22;13837;48.562;12.108;2022-12-11T08:06:36;-1.70;99.90
26063;DHT22;13837;48.562;12.108;2022-12-11T08:09:07;-1.60;99.90
26063;DHT22;13837;48.562;12.108;2022-12-11T08:11:34;-1.70;99.90
26063;DHT22;13837;48.562;12.108;2022-12-11T08:14:00;-1.70;99.90
26063;DHT22;13837;48.562;12.108;2022-12-11T08:16:27;-1.80;99.90
26063;DHT22;13837;48.562;12.108;2022-12-11T08:18:54;-1.70;99.90
26063;DHT22;13837;48.562;12.108;2022-12-11T08:21:24;-1.60;99.90
26063;DHT22;13837;48.562;12.108;2022-12-11T08:23:51;-1.60;99.90
26063;DHT22;13837;48.562;12.108;2022-12-11T08:26:21;-1.70;99.90
26063;DHT22;13837;48.562;12.108;2022-12-11T08:28:47;-1.70;99.90
26063;DHT22;13837;48.562;12.108;2022-12-11T08:31:13;-1.70;99.90
26063;DHT22;13837;48.562;12.108;2022-12-11T08:33:40;-1.60;99.90
26063;DHT22;13837;48.562;12.108;2022-12-11T08:36:08;-1.50;99.90
26063;DHT22;13837;48.562;12.108;2022-12-11T08:38:34;-1.40;99.90
26063;DHT22;13837;48.562;12.108;2022-12-11T08:41:10;-1.40;99.90
26063;DHT22;13837;48.562;12.108;2022-12-11T08:43:37;-1.40;99.90
26063;DHT22;13837;48.562;12.108;2022-12-11T08:46:03;-1.30;99.90
26063;DHT22;13837;48.562;12.108;2022-12-11T08:48:29;-1.30;99.90
26063;DHT22;13837;48.562;12.108;2022-12-11T08:50:59;-1.30;99.90
26063;DHT22;13837;48.562;12.108;2022-12-11T08:53:26;-1.20;99.90
26063;DHT22;13837;48.562;12.108;2022-12-11T08:55:52;-1.30;99.90
26063;DHT22;13837;48.562;12.108;2022-12-11T08:58:18;-1.30;99.90
26063;DHT22;13837;48.562;12.108;2022-12-11T09:00:44;-1.40;99.90
26063;DHT22;13837;48.562;12.108;2022-12-11T09:03:09;-1.30;99.90
26063;DHT22;13837;48.562;12.108;2022-12-11T09:05:37;-1.20;99.90
26063;DHT22;13837;48.562;12.108;2022-12-11T09:08:02;-1.20;99.90
26063;DHT22;13837;48.562;12.108;2022-12-11T09:10:28;-1.20;99.90
26063;DHT22;13837;48.562;12.108;2022-12-11T09:12:54;-1.30;99.90
26063;DHT22;13837;48.562;12.108;2022-12-11T09:15:19;-1.10;99.90
26063;DHT22;13837;48.562;12.108;2022-12-11T09:17:45;-1.10;99.90
26063;DHT22;13837;48.562;12.108;2022-12-11T09:20:11;-1.10;99.90
26063;DHT22;13837;48.562;12.108;2022-12-11T09:22:38;-1.00;99.90
26063;DHT22;13837;48.562;12.108;2022-12-11T09:25:06;-1.10;99.90
26063;DHT22;13837;48.562;12.108;2022-12-11T09:27:33;-1.00;99.90
26063;DHT22;13837;48.562;12.108;2022-12-11T09:29:58;-0.90;99.90
26063;DHT22;13837;48.562;12.108;2022-12-11T09:32:24;-0.80;99.90
26063;DHT22;13837;48.562;12.108;2022-12-11T09:34:50;-0.70;99.90
26063;DHT22;13837;48.562;12.108;2022-12-11T09:37:18;-0.70;99.90
26063;DHT22;13837;48.562;12.108;2022-12-11T09:39:44;-0.60;99.90
26063;DHT22;13837;48.562;12.108;2022-12-11T09:44:47;-0.60;99.90
26063;DHT22;13837;48.562;12.108;2022-12-11T09:49:45;-0.80;99.90
26063;DHT22;13837;48.562;12.108;2022-12-11T09:52:22;-0.80;99.90
26063;DHT22;13837;48.562;12.108;2022-12-11T09:54:59;-0.90;99.90
26063;DHT22;13837;48.562;12.108;2022-12-11T09:58:02;-0.90;99.90
26063;DHT22;13837;48.562;12.108;2022-12-11T10:00:47;-0.80;99.90
26063;DHT22;13837;48.562;12.108;2022-12-11T10:06:11;-0.70;99.90
26063;DHT22;13837;48.562;12.108;2022-12-11T10:16:59;-0.20;99.90
26063;DHT22;13837;48.562;12.108;2022-12-11T10:19:29;-0.20;99.90
26063;DHT22;13837;48.562;12.108;2022-12-11T10:21:55;-0.30;99.90
26063;DHT22;13837;48.562;12.108;2022-12-11T10:24:39;-0.40;99.90
26063;DHT22;13837;48.562;12.108;2022-12-11T10:27:16;-0.50;99.90
26063;DHT22;13837;48.562;12.108;2022-12-11T10:29:45;-0.50;99.90
26063;DHT22;13837;48.562;12.108;2022-12-11T10:32:20;-0.70;99.90
26063;DHT22;13837;48.562;12.108;2022-12-11T10:34:48;-0.60;99.90
26063;DHT22;13837;48.562;12.108;2022-12-11T10:37:16;-0.60;99.90
26063;DHT22;13837;48.562;12.108;2022-12-11T10:39:42;-0.70;99.90
26063;DHT22;13837;48.562;12.108;2022-12-11T10:42:17;-0.80;99.90
26063;DHT22;13837;48.562;12.108;2022-12-11T10:44:55;-0.80;99.90
26063;DHT22;13837;48.562;12.108;2022-12-11T10:47:21;-0.90;99.90
26063;DHT22;13837;48.562;12.108;2022-12-11T10:49:56;-1.00;99.90
26063;DHT22;13837;48.562;12.108;2022-12-11T10:52:46;-0.90;99.90
26063;DHT22;13837;48.562;12.108;2022-12-11T10:55:23;-0.90;99.90
26063;DHT22;13837;48.562;12.108;2022-12-11T10:58:03;-1.00;99.90
26063;DHT22;13837;48.562;12.108;2022-12-11T11:00:37;-0.90;99.90
26063;DHT22;13837;48.562;12.108;2022-12-11T11:03:05;-0.90;99.90
26063;DHT22;13837;48.562;12.108;2022-12-11T11:05:34;-1.00;99.90
26063;DHT22;13837;48.562;12.108;2022-12-11T11:08:37;-1.20;99.90
26063;DHT22;13837;48.562;12.108;2022-12-11T11:11:03;-1.30;99.90
26063;DHT22;13837;48.562;12.108;2022-12-11T11:13:30;-1.20;99.90
26063;DHT22;13837;48.562;12.108;2022-12-11T11:18:26;-1.20;99.90
26063;DHT22;13837;48.562;12.108;2022-12-11T11:20:53;-1.20;99.90
26063;DHT22;13837;48.562;12.108;2022-12-11T11:23:19;-1.00;99.90
26063;DHT22;13837;48.562;12.108;2022-12-11T11:25:54;-1.10;99.90
26063;DHT22;13837;48.562;12.108;2022-12-11T11:28:24;-1.10;99.90
26063;DHT22;13837;48.562;12.108;2022-12-11T11:31:00;-1.30;99.90
26063;DHT22;13837;48.562;12.108;2022-12-11T11:33:28;-1.40;99.90
26063;DHT22;13837;48.562;12.108;2022-12-11T11:35:59;-1.40;99.90
26063;DHT22;13837;48.562;12.108;2022-12-11T11:38:28;-1.30;99.90
26063;DHT22;13837;48.562;12.108;2022-12-11T11:41:11;-1.40;99.90
26063;DHT22;13837;48.562;12.108;2022-12-11T11:43:51;-1.40;99.90
26063;DHT22;13837;48.562;12.108;2022-12-11T11:46:34;-1.30;99.90
26063;DHT22;13837;48.562;12.108;2022-12-11T11:49:21;-1.30;99.90
26063;DHT22;13837;48.562;12.108;2022-12-11T11:51:53;-1.50;99.90
26063;DHT22;13837;48.562;12.108;2022-12-11T11:54:30;-1.40;99.90
26063;DHT22;13837;48.562;12.108;2022-12-11T11:57:00;-1.60;99.90
26063;DHT22;13837;48.562;12.108;2022-12-11T11:59:29;-1.60;99.90
26063;DHT22;13837;48.562;12.108;2022-12-11T12:01:56;-1.50;99.90
26063;DHT22;13837;48.562;12.108;2022-12-11T12:04:24;-1.60;99.90
26063;DHT22;13837;48.562;12.108;2022-12-11T12:18:26;-1.50;99.90
26063;DHT22;13837;48.562;12.108;2022-12-11T12:34:26;-1.10;99.90
26063;DHT22;13837;48.562;12.108;2022-12-11T12:37:09;-1.20;99.90
26063;DHT22;13837;48.562;12.108;2022-12-11T12:42:32;-1.40;99.90
26063;DHT22;13837;48.562;12.108;2022-12-11T12:45:07;-1.30;99.90
26063;DHT22;13837;48.562;12.108;2022-12-11T12:47:38;-1.20;99.90
26063;DHT22;13837;48.562;12.108;2022-12-11T12:50:10;-1.30;99.90
26063;DHT22;13837;48.562;12.108;2022-12-11T12:52:38;-1.10;99.90
26063;DHT22;13837;48.562;12.108;2022-12-11T12:57:58;-0.90;99.90
26063;DHT22;13837;48.562;12.108;2022-12-11T13:00:40;-1.00;99.90
26063;DHT22;13837;48.562;12.108;2022-12-11T13:03:24;-1.00;99.90
26063;DHT22;13837;48.562;12.108;2022-12-11T13:06:02;-1.00;99.90
26063;DHT22;13837;48.562;12.108;2022-12-11T13:08:41;-0.90;99.90
26063;DHT22;13837;48.562;12.108;2022-12-11T13:11:14;-0.80;99.90
26063;DHT22;13837;48.562;12.108;2022-12-11T13:13:43;-0.70;99.90
26063;DHT22;13837;48.562;12.108;2022-12-11T13:18:42;-0.60;99.90
26063;DHT22;13837;48.562;12.108;2022-12-11T13:21:34;-0.60;99.90
26063;DHT22;13837;48.562;12.108;2022-12-11T13:24:16;-0.80;99.90
26063;DHT22;13837;48.562;12.108;2022-12-11T13:26:49;-0.80;99.90
26063;DHT22;13837;48.562;12.108;2022-12-11T13:32:00;-0.70;99.90
26063;DHT22;13837;48.562;12.108;2022-12-11T13:34:30;-0.80;99.90
26063;DHT22;13837;48.562;12.108;2022-12-11T13:36:57;-0.60;99.90
26063;DHT22;13837;48.562;12.108;2022-12-11T13:39:25;-0.60;99.90
26063;DHT22;13837;48.562;12.108;2022-12-11T13:41:54;-0.70;99.90
26063;DHT22;13837;48.562;12.108;2022-12-11T13:44:27;-0.70;99.90
26063;DHT22;13837;48.562;12.108;2022-12-11T13:46:57;-0.70;99.90
26063;DHT22;13837;48.562;12.108;2022-12-11T13:49:46;-0.60;99.90
26063;DHT22;13837;48.562;12.108;2022-12-11T13:52:17;-0.70;99.90
26063;DHT22;13837;48.562;12.108;2022-12-11T13:54:49;-0.70;99.90
26063;DHT22;13837;48.562;12.108;2022-12-11T13:57:21;-0.80;99.90
26063;DHT22;13837;48.562;12.108;2022-12-11T13:59:50;-0.80;99.90
26063;DHT22;13837;48.562;12.108;2022-12-11T14:02:26;-0.80;99.90
26063;DHT22;13837;48.562;12.108;2022-12-11T14:04:57;-0.80;99.90
26063;DHT22;13837;48.562;12.108;2022-12-11T14:07:29;-0.80;99.90
26063;DHT22;13837;48.562;12.108;2022-12-11T14:10:07;-0.80;99.90
26063;DHT22;13837;48.562;12.108;2022-12-11T14:12:34;-0.90;99.90
26063;DHT22;13837;48.562;12.108;2022-12-11T14:15:02;-1.30;99.90
26063;DHT22;13837;48.562;12.108;2022-12-11T14:17:33;-2.00;99.90
26063;DHT22;13837;48.562;12.108;2022-12-11T14:20:02;-2.00;99.90
26063;DHT22;13837;48.562;12.108;2022-12-11T14:22:31;-2.10;99.90
26063;DHT22;13837;48.562;12.108;2022-12-11T14:25:00;-2.30;99.90
26063;DHT22;13837;48.562;12.108;2022-12-11T14:27:28;-2.40;99.90
26063;DHT22;13837;48.562;12.108;2022-12-11T14:29:54;-2.50;99.90
26063;DHT22;13837;48.562;12.108;2022-12-11T14:32:31;-2.30;99.90
26063;DHT22;13837;48.562;12.108;2022-12-11T14:34:59;-2.40;99.90
26063;DHT22;13837;48.562;12.108;2022-12-11T14:37:29;-2.30;99.90
26063;DHT22;13837;48.562;12.108;2022-12-11T14:39:56;-2.10;99.90
26063;DHT22;13837;48.562;12.108;2022-12-11T14:42:28;-2.10;99.90
26063;DHT22;13837;48.562;12.108;2022-12-11T14:45:31;-2.20;99.90
26063;DHT22;13837;48.562;12.108;2022-12-11T14:47:58;-2.20;99.90
26063;DHT22;13837;48.562;12.108;2022-12-11T14:53:00;-2.00;99.90
26063;DHT22;13837;48.562;12.108;2022-12-11T14:55:31;-2.00;99.90
26063;DHT22;13837;48.562;12.108;2022-12-11T14:58:03;-1.90;99.90
26063;DHT22;13837;48.562;12.108;2022-12-11T15:00:33;-1.90;99.90
26063;DHT22;13837;48.562;12.108;2022-12-11T15:03:21;-1.80;99.90
26063;DHT22;13837;48.562;12.108;2022-12-11T15:05:53;-1.80;99.90
26063;DHT22;13837;48.562;12.108;2022-12-11T15:13:27;-1.90;99.90
26063;DHT22;13837;48.562;12.108;2022-12-11T15:15:54;-1.80;99.90
26063;DHT22;13837;48.562;12.108;2022-12-11T15:18:28;-1.90;99.90
26063;DHT22;13837;48.562;12.108;2022-12-11T15:21:03;-2.00;99.90
26063;DHT22;13837;48.562;12.108;2022-12-11T15:23:35;-2.10;99.90
26063;DHT22;13837;48.562;12.108;2022-12-11T15:26:07;-2.00;99.90
26063;DHT22;13837;48.562;12.108;2022-12-11T15:28:42;-2.10;99.90
26063;DHT22;13837;48.562;12.108;2022-12-11T15:31:36;-2.20;99.90
26063;DHT22;13837;48.562;12.108;2022-12-11T15:34:21;-2.20;99.90
26063;DHT22;13837;48.562;12.108;2022-12-11T15:36:47;-2.30;99.90
26063;DHT22;13837;48.562;12.108;2022-12-11T15:39:13;-2.30;99.90
26063;DHT22;13837;48.562;12.108;2022-12-11T15:41:40;-2.40;99.90
26063;DHT22;13837;48.562;12.108;2022-12-11T15:44:18;-2.40;99.90
26063;DHT22;13837;48.562;12.108;2022-12-11T15:46:44;-2.40;99.90
26063;DHT22;13837;48.562;12.108;2022-12-11T15:49:11;-2.40;99.90
26063;DHT22;13837;48.562;12.108;2022-12-11T15:51:38;-2.40;99.90
26063;DHT22;13837;48.562;12.108;2022-12-11T15:54:04;-2.60;99.90
26063;DHT22;13837;48.562;12.108;2022-12-11T15:56:30;-2.70;99.90
26063;DHT22;13837;48.562;12.108;2022-12-11T15:59:03;-2.80;99.90
26063;DHT22;13837;48.562;12.108;2022-12-11T16:01:31;-2.80;99.90
26063;DHT22;13837;48.562;12.108;2022-12-11T16:03:57;-2.80;99.90
26063;DHT22;13837;48.562;12.108;2022-12-11T16:06:22;-2.70;99.90
26063;DHT22;13837;48.562;12.108;2022-12-11T16:08:49;-2.60;99.90
26063;DHT22;13837;48.562;12.108;2022-12-11T16:11:14;-2.60;99.90
26063;DHT22;13837;48.562;12.108;2022-12-11T16:13:40;-2.60;99.90
26063;DHT22;13837;48.562;12.108;2022-12-11T16:16:06;-2.70;99.90
26063;DHT22;13837;48.562;12.108;2022-12-11T16:18:32;-2.60;99.90
26063;DHT22;13837;48.562;12.108;2022-12-11T16:21:03;-2.60;99.90
26063;DHT22;13837;48.562;12.108;2022-12-11T16:23:29;-2.70;99.90
26063;DHT22;13837;48.562;12.108;2022-12-11T16:25:55;-2.70;99.90
26063;DHT22;13837;48.562;12.108;2022-12-11T16:28:20;-2.60;99.90
26063;DHT22;13837;48.562;12.108;2022-12-11T16:30:46;-2.70;99.90
26063;DHT22;13837;48.562;12.108;2022-12-11T16:33:12;-2.60;99.90
26063;DHT22;13837;48.562;12.108;2022-12-11T16:35:38;-2.60;99.90
26063;DHT22;13837;48.562;12.108;2022-12-11T16:38:04;-2.60;99.90
26063;DHT22;13837;48.562;12.108;2022-12-11T16:40:30;-2.60;99.90
26063;DHT22;13837;48.562;12.108;2022-12-11T16:42:56;-2.50;99.90
26063;DHT22;13837;48.562;12.108;2022-12-11T16:45:23;-2.60;99.90
26063;DHT22;13837;48.562;12.108;2022-12-11T16:47:50;-2.60;99.90
26063;DHT22;13837;48.562;12.108;2022-12-11T16:50:17;-2.40;99.90
26063;DHT22;13837;48.562;12.108;2022-12-11T16:52:44;-2.50;99.90